Time;durP1;ratioP1;P1;durP2;ratioP2;P2;SDS_P1;SDS_P2;PMS_P1;PMS_P2;Temp;Humidity;BMP_temperature;BMP_pressure;BME280_temperature;BME280_humidity;BME280_pressure;Samples;Min_cycle;Max_cycle;Signal;HPM_P1;HPM_P2
2023/01/21 00:00:06;;;;;;;13.25;7.35;;;;;;;-3.47;100.00;96029.66;5098964;28;24433;-73
2023/01/21 00:02:33;;;;;;;10.20;7.30;;;;;;;-3.46;100.00;96035.56;5102535;28;24438;-72
2023/01/21 00:04:59;;;;;;;8.85;7.13;;;;;;;-3.33;100.00;96037.22;5087069;28;24450;-73
2023/01/21 00:07:27;;;;;;;9.77;7.57;;;;;;;-3.21;100.00;96033.78;5089683;28;24876;-73
2023/01/21 00:09:54;;;;;;;8.32;7.30;;;;;;;-3.17;100.00;96030.38;5105077;28;24446;-73
2023/01/21 00:12:20;;;;;;;10.00;7.03;;;;;;;-3.12;100.00;96040.47;5101714;28;24437;-73
2023/01/21 00:14:47;;;;;;;10.40;7.40;;;;;;;-3.12;100.00;96037.94;5103821;28;24436;-74
2023/01/21 00:17:13;;;;;;;13.43;8.98;;;;;;;-3.08;100.00;96039.59;5103251;28;24437;-74
2023/01/21 00:19:40;;;;;;;13.10;10.30;;;;;;;-3.00;100.00;96040.44;5102836;28;24598;-72
2023/01/21 00:22:06;;;;;;;13.07;8.60;;;;;;;-3.02;100.00;96042.94;5103595;28;24436;-74
2023/01/21 00:24:34;;;;;;;9.40;7.80;;;;;;;-3.04;100.00;96039.59;5101532;28;24456;-74
2023/01/21 00:27:00;;;;;;;9.48;6.75;;;;;;;-3.23;100.00;96038.00;5096128;28;24971;-74
2023/01/21 00:29:27;;;;;;;10.25;7.20;;;;;;;-3.21;100.00;96031.25;5093849;28;24438;-73
2023/01/21 00:31:53;;;;;;;9.77;7.55;;;;;;;-3.10;100.00;96043.84;5103555;28;24437;-74
2023/01/21 00:34:20;;;;;;;8.35;7.13;;;;;;;-3.06;100.00;96037.91;5095034;28;24430;-73
2023/01/21 00:36:46;;;;;;;10.73;7.55;;;;;;;-3.22;100.00;96039.69;5103386;28;24425;-72
2023/01/21 00:39:12;;;;;;;9.90;7.20;;;;;;;-3.29;100.00;96041.41;5101508;28;24445;-73
2023/01/21 00:41:40;;;;;;;11.80;7.63;;;;;;;-3.36;100.00;96051.56;5103076;28;24433;-73
2023/01/21 00:44:07;;;;;;;12.68;7.57;;;;;;;-3.31;100.00;96043.09;5106806;28;24824;-73
2023/01/21 00:46:33;;;;;;;9.60;7.30;;;;;;;-3.25;100.00;96053.22;5105667;28;24433;-73
2023/01/21 00:49:00;;;;;;;9.00;6.70;;;;;;;-3.59;100.00;96047.44;5102183;28;24471;-73
2023/01/21 00:51:27;;;;;;;11.93;7.43;;;;;;;-3.47;100.00;96051.63;5102051;28;25252;-73
2023/01/21 00:53:53;;;;;;;9.05;7.60;;;;;;;-3.53;100.00;96052.47;5103352;28;24465;-73
2023/01/21 00:56:20;;;;;;;12.10;8.02;;;;;;;-3.51;100.00;96058.38;5102219;28;24441;-73
2023/01/21 00:58:47;;;;;;;10.10;7.60;;;;;;;-3.41;100.00;96065.09;5097042;28;24521;-73
2023/01/21 01:01:16;;;;;;;11.38;7.72;;;;;;;-3.34;100.00;96058.31;5099984;28;24504;-73
2023/01/21 01:03:43;;;;;;;10.00;8.40;;;;;;;-3.32;100.00;96060.84;5102567;28;25116;-73
2023/01/21 01:06:12;;;;;;;12.10;8.93;;;;;;;-3.32;100.00;96058.31;5099745;28;24427;-74
2023/01/21 01:08:39;;;;;;;18.30;9.70;;;;;;;-3.25;100.00;96065.88;5099280;28;24437;-73
2023/01/21 01:11:06;;;;;;;13.80;8.65;;;;;;;-3.21;100.00;96067.53;5098936;28;24458;-72
2023/01/21 01:13:33;;;;;;;9.77;7.53;;;;;;;-3.24;100.00;96074.31;5105391;28;24437;-73
2023/01/21 01:16:01;;;;;;;11.45;7.82;;;;;;;-3.20;100.00;96076.81;5098152;28;24812;-74
2023/01/21 01:18:29;;;;;;;12.80;7.93;;;;;;;-3.17;100.00;96073.44;5106832;28;24440;-73
2023/01/21 01:20:55;;;;;;;10.27;6.68;;;;;;;-3.07;100.00;96081.84;5099036;28;24434;-72
2023/01/21 01:23:23;;;;;;;11.10;6.68;;;;;;;-3.16;100.00;96087.78;5106636;28;24428;-73
2023/01/21 01:25:54;;;;;;;8.60;6.32;;;;;;;-3.26;100.00;96088.69;5098923;28;24433;-73
2023/01/21 01:28:21;;;;;;;8.95;7.03;;;;;;;-3.50;100.00;96094.66;5106775;28;24434;-73
2023/01/21 01:30:48;;;;;;;11.70;8.00;;;;;;;-3.54;100.00;96090.47;5098758;28;24444;-72
2023/01/21 01:33:16;;;;;;;10.32;7.90;;;;;;;-3.56;100.00;96097.19;5106288;28;24437;-73
2023/01/21 01:35:45;;;;;;;10.90;8.13;;;;;;;-3.63;100.00;96093.88;5098579;28;24975;-73
2023/01/21 01:38:12;;;;;;;10.20;7.70;;;;;;;-3.74;100.00;96095.59;5106067;28;24520;-73
2023/01/21 01:40:39;;;;;;;16.10;7.88;;;;;;;-3.63;100.00;96103.13;5092268;28;24437;-73
2023/01/21 01:43:12;;;;;;;14.10;8.25;;;;;;;-3.73;100.00;96102.31;5105569;28;24442;-73
2023/01/21 01:45:39;;;;;;;9.45;7.60;;;;;;;-3.75;100.00;96094.72;5094601;28;24473;-73
2023/01/21 01:48:05;;;;;;;15.75;8.57;;;;;;;-3.84;100.00;96097.28;5105670;28;24437;-73
2023/01/21 01:50:37;;;;;;;9.73;8.52;;;;;;;-4.05;100.00;96102.34;5098555;28;24438;-73
2023/01/21 01:53:04;;;;;;;13.30;8.20;;;;;;;-4.04;100.00;96104.03;5098736;28;24434;-73
2023/01/21 01:55:33;;;;;;;14.73;8.90;;;;;;;-4.10;100.00;96101.53;5098970;28;24422;-72
2023/01/21 01:58:03;;;;;;;13.47;8.17;;;;;;;-4.07;100.00;96099.00;5104135;28;24817;-74
2023/01/21 02:00:30;;;;;;;11.70;8.90;;;;;;;-4.11;100.00;96105.75;5100703;28;24438;-74
2023/01/21 02:05:43;;;;;;;10.15;9.00;;;;;;;-4.08;100.00;96105.72;5091706;28;24580;-73
2023/01/21 02:08:11;;;;;;;11.45;9.43;;;;;;;-4.00;100.00;96108.28;5097767;28;24457;-73
2023/01/21 02:10:37;;;;;;;14.07;9.70;;;;;;;-4.00;100.00;96116.69;5103849;28;24445;-73
2023/01/21 02:13:04;;;;;;;13.80;9.20;;;;;;;-4.21;100.00;96107.41;5106204;28;24445;-73
2023/01/21 02:15:39;;;;;;;11.75;9.23;;;;;;;-4.11;100.00;96115.03;5101545;28;24536;-73
2023/01/21 02:18:18;;;;;;;12.93;9.68;;;;;;;-3.94;100.00;96121.72;5100102;28;24426;-73
2023/01/21 02:21:23;;;;;;;16.50;9.38;;;;;;;-3.96;100.00;96117.53;5096667;28;24438;-73
2023/01/21 02:24:10;;;;;;;14.88;9.30;;;;;;;-4.01;100.00;96127.63;5094687;28;24430;-72
2023/01/21 02:26:59;;;;;;;11.93;9.35;;;;;;;-3.99;100.00;96123.44;5091383;28;24433;-72
2023/01/21 02:29:46;;;;;;;13.95;10.07;;;;;;;-3.78;100.00;96136.91;5099891;28;24430;-73
2023/01/21 02:32:33;;;;;;;11.85;9.25;;;;;;;-3.85;100.00;96131.03;5100751;28;24457;-73
2023/01/21 02:35:09;;;;;;;11.10;8.82;;;;;;;-3.94;100.00;96131.84;5101975;28;24433;-72
2023/01/21 02:37:42;;;;;;;14.60;8.50;;;;;;;-3.84;100.00;96144.53;5101853;28;24417;-73
2023/01/21 02:40:14;;;;;;;10.27;8.23;;;;;;;-3.93;100.00;96145.34;5101045;28;24459;-72
2023/01/21 02:42:45;;;;;;;11.27;8.07;;;;;;;-3.86;100.00;96141.97;5098772;28;24442;-72
2023/01/21 02:45:23;;;;;;;11.32;7.82;;;;;;;-3.87;100.00;96141.97;5100802;28;24994;-72
2023/01/21 02:48:04;;;;;;;13.60;9.10;;;;;;;-4.28;100.00;96141.13;5101531;28;24986;-73
2023/01/21 02:50:35;;;;;;;10.38;8.80;;;;;;;-4.25;100.00;96146.19;5100372;28;24424;-72
2023/01/21 02:53:03;;;;;;;8.95;8.05;;;;;;;-4.05;100.00;96148.72;5101504;28;24433;-72
2023/01/21 02:55:32;;;;;;;10.77;8.52;;;;;;;-3.94;100.00;96152.09;5090618;28;24425;-72
2023/01/21 02:58:02;;;;;;;13.38;8.90;;;;;;;-3.87;100.00;96149.56;5095033;28;24465;-73
2023/01/21 03:00:42;;;;;;;9.30;7.53;;;;;;;-4.01;100.00;96160.53;5103638;28;24429;-73
2023/01/21 03:03:21;;;;;;;9.23;7.25;;;;;;;-4.18;100.00;96158.00;5100918;28;24513;-73
2023/01/21 03:06:18;;;;;;;9.18;7.93;;;;;;;-4.28;100.00;96153.78;5084075;28;24474;-72
2023/01/21 03:08:49;;;;;;;10.63;8.55;;;;;;;-4.35;100.00;96152.09;5081384;28;24499;-72
2023/01/21 03:11:19;;;;;;;9.70;7.70;;;;;;;-4.34;100.00;96151.22;5089302;28;24433;-72
2023/01/21 03:16:57;;;;;;;9.60;7.90;;;;;;;-4.27;100.00;96155.47;5101484;28;24999;-72
2023/01/21 03:19:32;;;;;;;10.35;8.50;;;;;;;-4.18;100.00;96154.66;5099135;28;24441;-72
2023/01/21 03:22:05;;;;;;;9.60;8.32;;;;;;;-4.22;100.00;96150.44;5107524;28;24506;-73
2023/01/21 03:24:33;;;;;;;14.40;9.23;;;;;;;-4.20;100.00;96149.56;5095354;28;24448;-72
2023/01/21 03:27:00;;;;;;;11.80;8.35;;;;;;;-4.24;100.00;96152.09;5102821;28;24441;-72
2023/01/21 03:29:30;;;;;;;10.13;8.65;;;;;;;-4.24;100.00;96147.88;5102093;28;24472;-72
2023/01/21 03:32:03;;;;;;;11.15;9.35;;;;;;;-4.24;100.00;96157.16;5106716;28;24440;-72
2023/01/21 03:34:35;;;;;;;12.25;8.93;;;;;;;-4.40;100.00;96158.84;5092298;28;24437;-72
2023/01/21 03:37:07;;;;;;;11.80;8.57;;;;;;;-4.49;100.00;96161.31;5104808;28;24433;-72
2023/01/21 03:39:40;;;;;;;12.82;8.05;;;;;;;-4.52;100.00;96158.81;5105497;28;24441;-72
2023/01/21 03:42:08;;;;;;;9.20;8.00;;;;;;;-4.51;100.00;96163.88;5100995;28;24499;-72
2023/01/21 03:44:34;;;;;;;11.68;8.48;;;;;;;-4.50;100.00;96164.69;5097253;28;24490;-72
2023/01/21 03:47:10;;;;;;;12.18;8.95;;;;;;;-4.64;100.00;96157.91;5107038;28;24461;-72
2023/01/21 03:49:42;;;;;;;11.45;9.15;;;;;;;-4.77;100.00;96156.22;5093355;28;24467;-72
2023/01/21 03:52:13;;;;;;;13.57;9.95;;;;;;;-4.73;100.00;96164.66;5107628;28;24425;-73
2023/01/21 03:54:40;;;;;;;12.23;9.90;;;;;;;-4.78;100.00;96164.66;5095743;28;24515;-72
2023/01/21 03:57:07;;;;;;;12.63;9.77;;;;;;;-4.84;100.00;96168.84;5106468;28;24994;-73
2023/01/21 03:59:33;;;;;;;15.18;9.18;;;;;;;-5.07;100.00;96169.59;5100710;28;24483;-72
2023/01/21 04:02:00;;;;;;;15.25;9.35;;;;;;;-5.25;100.00;96175.41;5104812;28;24441;-72
2023/01/21 04:04:26;;;;;;;15.30;10.30;;;;;;;-5.16;100.00;96167.84;5091542;28;24863;-72
2023/01/21 04:06:52;;;;;;;12.60;10.70;;;;;;;-5.10;100.00;96182.19;5098489;28;24800;-73
2023/01/21 04:09:20;;;;;;;10.30;8.10;;;;;;;-4.87;100.00;96177.22;5102000;28;24441;-73
2023/01/21 04:11:47;;;;;;;11.32;8.38;;;;;;;-5.08;100.00;96185.56;5097528;28;24438;-73
2023/01/21 04:14:13;;;;;;;11.52;8.45;;;;;;;-5.20;100.00;96191.41;5095638;28;24472;-73
2023/01/21 04:16:40;;;;;;;11.43;8.77;;;;;;;-5.22;100.00;96189.72;5102291;28;24440;-72
2023/01/21 04:19:06;;;;;;;11.30;9.02;;;;;;;-5.17;100.00;96191.41;5104023;28;24434;-72
2023/01/21 04:21:33;;;;;;;12.23;9.43;;;;;;;-5.10;100.00;96189.78;5104940;28;24433;-72
2023/01/21 04:23:59;;;;;;;9.80;8.60;;;;;;;-5.13;100.00;96190.59;5105468;28;24441;-72
2023/01/21 04:26:27;;;;;;;10.48;8.85;;;;;;;-5.11;100.00;96198.19;5100758;28;24458;-72
2023/01/21 04:28:53;;;;;;;10.43;8.18;;;;;;;-5.07;100.00;96201.59;5100766;28;24432;-72
2023/01/21 04:31:20;;;;;;;9.20;7.65;;;;;;;-5.01;100.00;96209.16;5108820;28;24442;-72
2023/01/21 04:33:46;;;;;;;10.20;7.97;;;;;;;-5.24;100.00;96204.00;5103602;28;24441;-72
2023/01/21 04:36:13;;;;;;;11.60;7.95;;;;;;;-5.27;100.00;96204.81;5102752;28;24466;-72
2023/01/21 04:38:39;;;;;;;12.40;8.87;;;;;;;-5.20;100.00;96206.56;5098503;28;24465;-72
2023/01/21 04:41:06;;;;;;;11.40;8.82;;;;;;;-5.17;100.00;96201.53;5103356;28;24434;-73
2023/01/21 04:43:34;;;;;;;9.75;7.88;;;;;;;-5.25;100.00;96198.13;5103107;28;24966;-72
2023/01/21 04:46:00;;;;;;;9.70;7.88;;;;;;;-5.11;100.00;96205.78;5103623;28;25022;-73
2023/01/21 04:48:27;;;;;;;9.13;8.15;;;;;;;-5.26;100.00;96216.63;5100113;28;24802;-72
2023/01/21 04:50:53;;;;;;;10.38;9.27;;;;;;;-5.64;100.00;96218.88;5098919;28;24965;-72
2023/01/21 04:53:19;;;;;;;12.65;9.35;;;;;;;-5.72;100.00;96208.75;5099800;28;24465;-72
2023/01/21 04:55:46;;;;;;;10.20;9.13;;;;;;;-5.68;100.00;96212.97;5098718;28;24435;-72
2023/01/21 04:58:12;;;;;;;12.10;10.23;;;;;;;-5.70;100.00;96209.63;5100245;28;24433;-72
2023/01/21 05:00:40;;;;;;;14.05;11.25;;;;;;;-5.63;100.00;96210.50;5106250;28;24434;-72
2023/01/21 05:03:07;;;;;;;12.48;10.25;;;;;;;-5.67;100.00;96209.66;5099604;28;24443;-72
2023/01/21 05:05:33;;;;;;;12.13;10.45;;;;;;;-5.81;100.00;96213.75;5106565;28;24485;-74
2023/01/21 05:07:59;;;;;;;13.52;11.18;;;;;;;-5.97;100.00;96205.25;5099765;28;24635;-72
2023/01/21 05:10:26;;;;;;;12.68;11.18;;;;;;;-5.86;100.00;96205.28;5106388;28;24463;-72
2023/01/21 05:12:52;;;;;;;12.90;10.18;;;;;;;-5.73;100.00;96212.13;5099305;28;24453;-72
2023/01/21 05:15:19;;;;;;;15.20;11.27;;;;;;;-5.59;100.00;96212.22;5106341;28;24418;-72
2023/01/21 05:17:47;;;;;;;12.02;10.50;;;;;;;-5.55;100.00;96213.94;5099465;28;24989;-72
2023/01/21 05:20:14;;;;;;;13.30;10.65;;;;;;;-5.60;100.00;96221.47;5100306;28;24430;-72
2023/01/21 05:22:40;;;;;;;13.20;10.93;;;;;;;-5.65;100.00;96222.25;5106552;28;24434;-72
2023/01/21 05:25:07;;;;;;;11.30;10.10;;;;;;;-5.67;100.00;96214.69;5102889;28;24457;-72
2023/01/21 05:27:34;;;;;;;13.15;11.00;;;;;;;-5.59;100.00;96219.78;5102536;28;24433;-72
2023/01/21 05:30:00;;;;;;;11.07;9.75;;;;;;;-5.62;100.00;96217.25;5099381;28;24437;-72
2023/01/21 05:32:27;;;;;;;16.30;11.02;;;;;;;-5.51;100.00;96219.84;5101952;28;24441;-72
2023/01/21 05:34:55;;;;;;;14.25;10.32;;;;;;;-5.45;100.00;96220.72;5101988;28;24444;-72
2023/01/21 05:37:21;;;;;;;11.20;9.60;;;;;;;-5.39;100.00;96218.22;5102360;28;24441;-72
2023/01/21 05:39:48;;;;;;;13.15;10.25;;;;;;;-5.38;100.00;96222.47;5102782;28;24436;-72
2023/01/21 05:42:14;;;;;;;13.85;10.90;;;;;;;-5.32;100.00;96218.28;5102021;28;24436;-72
2023/01/21 05:44:41;;;;;;;10.37;9.33;;;;;;;-5.43;100.00;96219.03;5102546;28;24444;-72
2023/01/21 05:47:07;;;;;;;13.05;9.80;;;;;;;-5.56;100.00;96226.50;5102116;28;25007;-72
2023/01/21 05:49:34;;;;;;;14.38;9.90;;;;;;;-5.62;100.00;96227.34;5099085;28;24522;-72
2023/01/21 05:52:02;;;;;;;11.65;10.07;;;;;;;-5.71;100.00;96230.66;5102225;28;24437;-72
2023/01/21 05:54:28;;;;;;;12.32;9.48;;;;;;;-5.86;100.00;96231.38;5101472;28;24987;-72
2023/01/21 05:56:55;;;;;;;12.80;10.40;;;;;;;-5.83;100.00;96233.03;5102131;28;25041;-72
2023/01/21 05:59:21;;;;;;;14.50;11.43;;;;;;;-6.01;100.00;96245.53;5101549;28;24457;-72
2023/01/21 06:01:48;;;;;;;13.50;11.38;;;;;;;-6.01;100.00;96238.81;5102230;28;24441;-72
2023/01/21 06:04:14;;;;;;;13.13;11.23;;;;;;;-6.09;100.00;96246.31;5100702;28;24434;-72
2023/01/21 06:06:40;;;;;;;14.63;12.10;;;;;;;-6.04;100.00;96243.84;5101823;28;24456;-72
2023/01/21 06:09:08;;;;;;;15.43;11.98;;;;;;;-6.11;100.00;96247.13;5101018;28;24975;-72
2023/01/21 06:11:35;;;;;;;19.83;13.52;;;;;;;-6.17;100.00;96242.88;5094694;28;25005;-72
2023/01/21 06:14:01;;;;;;;13.88;11.68;;;;;;;-6.39;100.00;96246.00;5101377;28;25148;-72
2023/01/21 06:16:28;;;;;;;17.48;11.43;;;;;;;-6.26;100.00;96254.56;5100969;28;24517;-73
2023/01/21 06:18:54;;;;;;;13.77;12.25;;;;;;;-6.26;100.00;96262.97;5102586;28;24445;-72
2023/01/21 06:21:21;;;;;;;15.43;12.07;;;;;;;-6.54;100.00;96256.78;5100092;28;24442;-72
2023/01/21 06:23:47;;;;;;;13.98;11.70;;;;;;;-6.35;100.00;96262.84;5102957;28;24441;-72
2023/01/21 06:26:15;;;;;;;13.07;11.35;;;;;;;-6.26;100.00;96262.97;5098959;28;24521;-72
2023/01/21 06:28:41;;;;;;;11.95;10.65;;;;;;;-6.16;100.00;96263.88;5099741;28;24983;-72
2023/01/21 06:31:08;;;;;;;13.93;11.43;;;;;;;-6.14;100.00;96269.78;5101809;28;25197;-72
2023/01/21 06:33:34;;;;;;;12.70;10.70;;;;;;;-6.08;100.00;96267.34;5098118;28;24446;-72
2023/01/21 06:36:01;;;;;;;11.68;9.82;;;;;;;-6.11;100.00;96274.88;5099387;28;25006;-72
2023/01/21 06:38:27;;;;;;;16.40;10.70;;;;;;;-6.12;100.00;96268.13;5103500;28;24429;-72
2023/01/21 06:40:54;;;;;;;13.50;10.02;;;;;;;-6.09;100.00;96281.59;5103967;28;24505;-72
2023/01/21 06:43:21;;;;;;;11.32;8.93;;;;;;;-6.02;100.00;96276.63;5101721;28;24448;-72
2023/01/21 06:45:48;;;;;;;10.20;8.97;;;;;;;-5.96;100.00;96285.09;5103117;28;24522;-72
2023/01/21 06:48:14;;;;;;;11.30;8.35;;;;;;;-5.91;100.00;96283.44;5104413;28;25199;-72
2023/01/21 06:50:41;;;;;;;10.52;8.45;;;;;;;-5.92;100.00;96289.31;5106744;28;24430;-72
2023/01/21 06:53:07;;;;;;;8.90;7.97;;;;;;;-6.07;100.00;96293.41;5088812;28;24450;-72
2023/01/21 06:55:34;;;;;;;8.75;6.78;;;;;;;-6.36;100.00;96297.28;5099261;28;25057;-72
2023/01/21 06:58:00;;;;;;;8.85;7.07;;;;;;;-6.18;100.00;96304.22;5102241;28;24797;-72
2023/01/21 07:00:28;;;;;;;9.18;7.50;;;;;;;-6.11;100.00;96298.41;5102797;28;24433;-73
2023/01/21 07:02:57;;;;;;;10.53;8.13;;;;;;;-5.91;100.00;96308.66;5102030;28;24449;-74
2023/01/21 07:05:24;;;;;;;12.63;7.93;;;;;;;-6.40;100.00;96305.66;5108266;28;24434;-74
2023/01/21 07:07:53;;;;;;;11.13;8.55;;;;;;;-6.41;100.00;96306.50;5102051;28;24426;-75
2023/01/21 07:10:20;;;;;;;8.88;7.97;;;;;;;-6.31;100.00;96309.94;5099692;28;24437;-73
2023/01/21 07:12:46;;;;;;;11.55;8.20;;;;;;;-6.28;100.00;96317.53;5095451;28;24444;-73
2023/01/21 07:15:13;;;;;;;13.00;9.57;;;;;;;-6.11;100.00;96328.66;5098477;28;24437;-73
2023/01/21 07:17:41;;;;;;;11.80;9.30;;;;;;;-5.80;100.00;96321.38;5102302;28;24449;-73
2023/01/21 07:20:11;;;;;;;15.00;9.98;;;;;;;-5.84;100.00;96330.59;5102824;28;24434;-72
2023/01/21 07:22:37;;;;;;;13.50;9.68;;;;;;;-5.87;100.00;96333.06;5102460;28;24791;-72
2023/01/21 07:25:04;;;;;;;11.55;9.75;;;;;;;-6.01;100.00;96332.13;5109883;28;24469;-72
2023/01/21 07:27:31;;;;;;;12.32;9.70;;;;;;;-6.35;100.00;96338.47;5096723;28;24481;-72
2023/01/21 07:29:57;;;;;;;11.90;9.77;;;;;;;-6.26;100.00;96346.16;5109018;28;24437;-72
2023/01/21 07:32:24;;;;;;;17.15;12.05;;;;;;;-6.48;100.00;96347.56;5096046;28;24983;-72
2023/01/21 07:34:52;;;;;;;15.30;11.63;;;;;;;-6.38;100.00;96341.81;5092828;28;24996;-72
2023/01/21 07:37:18;;;;;;;14.90;12.00;;;;;;;-6.30;100.00;96351.97;5094847;28;24434;-72
2023/01/21 07:39:44;;;;;;;13.35;11.60;;;;;;;-6.31;100.00;96349.44;5085333;28;24461;-72
2023/01/21 07:42:11;;;;;;;14.20;11.73;;;;;;;-6.34;100.00;96347.72;5102463;28;24457;-72
2023/01/21 07:44:37;;;;;;;19.83;15.77;;;;;;;-6.03;100.00;96363.22;5103927;28;24437;-72
2023/01/21 07:47:04;;;;;;;20.70;16.48;;;;;;;-6.01;100.00;96361.53;5103951;28;24456;-72
2023/01/21 07:49:31;;;;;;;21.58;17.45;;;;;;;-6.03;100.00;96360.69;5107816;28;24853;-72
2023/01/21 07:51:58;;;;;;;23.38;18.33;;;;;;;-5.81;100.00;96366.78;5098552;28;24438;-73
2023/01/21 07:54:25;;;;;;;21.30;17.45;;;;;;;-5.81;100.00;96371.81;5103578;27;24422;-72
2023/01/21 07:56:51;;;;;;;24.48;18.77;;;;;;;-5.88;100.00;96365.84;5097625;28;24426;-72
2023/01/21 07:59:18;;;;;;;26.05;19.23;;;;;;;-5.94;100.00;96373.38;5094773;28;24445;-72
2023/01/21 08:01:44;;;;;;;29.05;21.45;;;;;;;-5.82;100.00;96376.03;5098154;28;24445;-72
2023/01/21 08:04:11;;;;;;;28.23;20.98;;;;;;;-5.75;100.00;96371.88;5105461;28;24431;-73
2023/01/21 08:06:40;;;;;;;29.95;20.80;;;;;;;-5.78;100.00;96377.75;5101134;28;25009;-73
2023/01/21 08:09:08;;;;;;;29.60;21.88;;;;;;;-5.61;100.00;96385.47;5103161;28;24434;-72
2023/01/21 08:11:34;;;;;;;28.10;22.48;;;;;;;-5.59;100.00;96381.28;5095439;28;24430;-72
2023/01/21 08:14:01;;;;;;;28.65;22.67;;;;;;;-5.49;100.00;96380.53;5106185;28;24438;-72
2023/01/21 08:16:27;;;;;;;29.95;22.73;;;;;;;-5.60;100.00;96388.03;5101317;28;24433;-72
2023/01/21 08:18:54;;;;;;;30.02;23.25;;;;;;;-5.45;100.00;96383.94;5099317;28;24449;-72
2023/01/21 08:21:20;;;;;;;31.85;23.85;;;;;;;-5.26;100.00;96383.28;5101166;28;24433;-70
2023/01/21 08:23:47;;;;;;;32.00;23.38;;;;;;;-5.27;100.00;96390.81;5107559;28;24437;-72
2023/01/21 08:26:15;;;;;;;30.08;22.63;;;;;;;-5.23;100.00;96390.00;5098726;28;24457;-72
2023/01/21 08:28:41;;;;;;;34.05;24.27;;;;;;;-5.13;100.00;96395.16;5102977;28;24464;-72
2023/01/21 08:31:10;;;;;;;29.30;22.92;;;;;;;-5.22;100.00;96394.25;5105793;28;24441;-72
2023/01/21 08:33:37;;;;;;;34.03;23.83;;;;;;;-5.12;100.00;96391.81;5090544;28;24983;-72
2023/01/21 08:36:06;;;;;;;33.15;22.88;;;;;;;-5.05;100.00;96394.38;5104404;28;25006;-72
2023/01/21 08:38:33;;;;;;;31.90;24.17;;;;;;;-5.04;100.00;96396.06;5086384;28;24429;-72
2023/01/21 08:41:00;;;;;;;34.67;25.42;;;;;;;-5.21;100.00;96391.72;5088970;28;24442;-72
2023/01/21 08:43:27;;;;;;;33.55;24.73;;;;;;;-5.25;100.00;96394.22;5087176;28;24442;-72
2023/01/21 08:45:56;;;;;;;31.35;25.23;;;;;;;-5.17;100.00;96401.00;5104363;28;24437;-72
2023/01/21 08:48:22;;;;;;;34.30;24.20;;;;;;;-5.34;100.00;96405.06;5086716;28;24995;-72
2023/01/21 08:50:49;;;;;;;27.38;23.13;;;;;;;-5.51;100.00;96409.13;5096697;28;24449;-72
2023/01/21 08:53:15;;;;;;;30.57;24.20;;;;;;;-5.27;100.00;96405.97;5089807;28;24446;-72
2023/01/21 08:55:42;;;;;;;29.27;24.25;;;;;;;-5.25;100.00;96400.09;5105424;28;24996;-72
2023/01/21 08:58:09;;;;;;;28.98;23.52;;;;;;;-5.24;100.00;96395.91;5093353;28;24446;-72
2023/01/21 09:00:36;;;;;;;30.83;24.20;;;;;;;-5.02;100.00;96409.56;5103925;28;24441;-72
2023/01/21 09:03:03;;;;;;;29.48;23.80;;;;;;;-4.88;100.00;96405.47;5103298;28;24441;-72
2023/01/21 09:05:29;;;;;;;27.83;23.70;;;;;;;-4.74;100.00;96414.00;5106763;28;24452;-72
2023/01/21 09:07:56;;;;;;;30.23;22.88;;;;;;;-4.54;100.00;96415.78;5097593;28;24446;-72
2023/01/21 09:13:08;;;;;;;27.17;23.10;;;;;;;-4.74;100.00;96415.69;5097739;28;24441;-72
2023/01/21 09:15:38;;;;;;;29.58;22.90;;;;;;;-4.51;100.00;96421.72;5104794;28;24456;-72
2023/01/21 09:18:05;;;;;;;30.90;22.15;;;;;;;-4.59;100.00;96418.31;5105189;28;24433;-72
2023/01/21 09:20:31;;;;;;;30.35;23.35;;;;;;;-4.61;100.00;96419.97;5099438;28;24444;-72
2023/01/21 09:22:58;;;;;;;30.98;22.55;;;;;;;-4.56;100.00;96423.38;5102280;28;24565;-72
2023/01/21 09:25:25;;;;;;;27.17;20.35;;;;;;;-4.54;100.00;96419.16;5104898;28;24473;-72
2023/01/21 09:27:52;;;;;;;25.90;19.98;;;;;;;-4.53;100.00;96418.31;5097010;28;25002;-72
2023/01/21 09:30:18;;;;;;;27.20;20.83;;;;;;;-4.20;100.00;96422.72;5106428;28;24456;-72
2023/01/21 09:32:46;;;;;;;25.92;20.45;;;;;;;-4.20;100.00;96422.72;5104587;28;24445;-72
2023/01/21 09:35:13;;;;;;;26.02;19.75;;;;;;;-4.06;100.00;96420.28;5105400;28;24449;-72
2023/01/21 09:37:39;;;;;;;26.63;20.25;;;;;;;-4.23;100.00;96422.69;5094865;28;24441;-72
2023/01/21 09:40:06;;;;;;;25.65;20.00;;;;;;;-4.31;100.00;96423.50;5104255;28;24445;-72
2023/01/21 09:42:33;;;;;;;22.40;18.27;;;;;;;-4.24;100.00;96415.13;5102277;28;24438;-72
2023/01/21 09:45:02;;;;;;;30.75;21.95;;;;;;;-4.43;100.00;96417.53;5104732;28;24433;-72
2023/01/21 09:47:33;;;;;;;24.77;17.98;;;;;;;-4.31;100.00;96423.50;5101651;28;24457;-72
2023/01/21 09:50:05;;;;;;;24.27;18.00;;;;;;;-4.03;100.00;96420.28;5102269;28;24791;-72
2023/01/21 09:52:38;;;;;;;29.23;20.88;;;;;;;-4.14;100.00;96422.75;5105708;28;24445;-72
2023/01/21 09:55:12;;;;;;;27.90;19.33;;;;;;;-4.13;100.00;96421.91;5103082;28;24462;-72
2023/01/21 09:58:05;;;;;;;21.42;17.75;;;;;;;-4.14;100.00;96425.28;5100573;28;24449;-72
2023/01/21 10:00:36;;;;;;;18.50;16.15;;;;;;;-3.89;100.00;96427.94;5097109;28;24444;-72
2023/01/21 10:03:17;;;;;;;20.98;15.95;;;;;;;-3.59;100.00;96424.66;5103523;28;24815;-72
2023/01/21 10:06:07;;;;;;;21.23;16.30;;;;;;;-3.54;100.00;96429.72;5089464;28;24434;-72
2023/01/21 10:08:43;;;;;;;19.55;15.70;;;;;;;-3.59;100.00;96417.06;5101296;28;24849;-72
2023/01/21 10:11:22;;;;;;;21.08;16.17;;;;;;;-3.70;100.00;96426.31;5098247;28;24437;-72
2023/01/21 10:14:02;;;;;;;18.42;15.63;;;;;;;-3.49;100.00;96416.22;5096750;28;24437;-72
2023/01/21 10:16:35;;;;;;;20.80;15.37;;;;;;;-3.45;100.00;96419.59;5098504;28;24438;-72
2023/01/21 10:19:04;;;;;;;21.83;16.23;;;;;;;-3.52;100.00;96421.31;5093100;28;24430;-72
2023/01/21 10:21:35;;;;;;;19.83;15.57;;;;;;;-3.37;100.00;96423.03;5097741;28;24437;-72
2023/01/21 10:24:06;;;;;;;26.30;16.58;;;;;;;-3.40;100.00;96423.03;5085603;28;24492;-72
2023/01/21 10:26:34;;;;;;;21.27;16.63;;;;;;;-3.21;100.00;96419.66;5079806;28;24476;-73
2023/01/21 10:29:01;;;;;;;20.73;16.75;;;;;;;-3.39;100.00;96421.31;5090308;28;24457;-73
2023/01/21 10:31:30;;;;;;;20.38;16.05;;;;;;;-3.20;100.00;96425.56;5089646;28;24446;-73
2023/01/21 10:33:57;;;;;;;20.63;16.20;;;;;;;-3.01;100.00;96419.66;5097273;28;24800;-75
2023/01/21 10:36:50;;;;;;;19.83;16.05;;;;;;;-3.28;100.00;96417.13;5102899;28;24817;-74
2023/01/21 10:39:31;;;;;;;19.20;16.13;;;;;;;-3.42;100.00;96415.41;5103640;28;24441;-74
2023/01/21 10:42:14;;;;;;;17.73;14.85;;;;;;;-3.47;100.00;96406.97;5095894;28;24440;-74
2023/01/21 10:44:48;;;;;;;17.80;15.23;;;;;;;-3.30;100.00;96411.19;5097798;28;25003;-73
2023/01/21 10:47:26;;;;;;;21.45;16.48;;;;;;;-3.21;100.00;96414.59;5103344;28;24449;-74
2023/01/21 10:50:01;;;;;;;21.13;15.75;;;;;;;-3.23;100.00;96410.38;5088513;28;24449;-74
2023/01/21 10:52:37;;;;;;;21.93;16.30;;;;;;;-3.27;100.00;96419.66;5093079;28;24795;-74
2023/01/21 10:55:14;;;;;;;23.15;16.88;;;;;;;-3.15;100.00;96413.78;5100887;28;25014;-74
2023/01/21 10:57:52;;;;;;;27.30;18.15;;;;;;;-3.27;100.00;96417.13;5102152;28;24429;-71
2023/01/21 11:00:24;;;;;;;23.65;17.95;;;;;;;-3.34;100.00;96415.41;5099122;28;24439;-74
2023/01/21 11:02:54;;;;;;;25.30;17.58;;;;;;;-3.34;100.00;96407.81;5100915;28;24440;-74
2023/01/21 11:05:22;;;;;;;24.30;18.55;;;;;;;-3.19;100.00;96405.31;5101360;28;24430;-74
2023/01/21 11:07:51;;;;;;;24.92;18.50;;;;;;;-3.02;100.00;96409.53;5101194;28;24457;-74
2023/01/21 11:10:22;;;;;;;24.87;17.37;;;;;;;-3.10;100.00;96412.06;5103187;28;24445;-73
2023/01/21 11:12:49;;;;;;;26.63;19.13;;;;;;;-3.03;100.00;96397.72;5099806;28;24434;-73
2023/01/21 11:15:17;;;;;;;24.85;18.98;;;;;;;-3.14;100.00;96407.00;5099749;28;24845;-74
2023/01/21 11:17:46;;;;;;;22.88;18.05;;;;;;;-3.05;100.00;96414.59;5100243;28;24641;-74
2023/01/21 11:20:20;;;;;;;23.35;17.00;;;;;;;-3.12;100.00;96407.84;5103081;28;24441;-73
2023/01/21 11:22:46;;;;;;;25.33;18.00;;;;;;;-3.16;100.00;96412.91;5099586;28;24791;-74
2023/01/21 11:25:27;;;;;;;22.35;17.10;;;;;;;-3.09;100.00;96407.84;5100657;28;24436;-73
2023/01/21 11:27:53;;;;;;;21.13;17.60;;;;;;;-2.86;100.00;96401.09;5099736;28;24446;-74
2023/01/21 11:30:32;;;;;;;20.13;16.70;;;;;;;-2.99;100.00;96392.66;5094230;28;24898;-74